sensor_id;sensor_type;location;lat;lon;timestamp;temperature;humidity
38020;DHT22;23829;51.350;17.286;2023-05-07T00:01:14;22.50;44.10
38020;DHT22;23829;51.350;17.286;2023-05-07T00:03:40;22.70;44.00
38020;DHT22;23829;51.350;17.286;2023-05-07T00:06:07;22.60;44.00
38020;DHT22;23829;51.350;17.286;2023-05-07T00:08:34;22.20;44.30
38020;DHT22;23829;51.350;17.286;2023-05-07T00:11:00;22.30;44.60
38020;DHT22;23829;51.350;17.286;2023-05-07T00:13:27;22.20;45.10
38020;DHT22;23829;51.350;17.286;2023-05-07T00:15:53;22.20;44.60
38020;DHT22;23829;51.350;17.286;2023-05-07T00:18:19;22.60;43.90
38020;DHT22;23829;51.350;17.286;2023-05-07T00:20:48;22.60;44.20
38020;DHT22;23829;51.350;17.286;2023-05-07T00:23:15;22.80;43.20
38020;DHT22;23829;51.350;17.286;2023-05-07T00:25:41;22.30;44.00
38020;DHT22;23829;51.350;17.286;2023-05-07T00:28:07;22.20;43.80
38020;DHT22;23829;51.350;17.286;2023-05-07T00:30:34;22.70;43.10
38020;DHT22;23829;51.350;17.286;2023-05-07T00:33:00;22.70;43.50
38020;DHT22;23829;51.350;17.286;2023-05-07T00:35:28;22.10;43.50
38020;DHT22;23829;51.350;17.286;2023-05-07T00:37:55;21.80;45.30
38020;DHT22;23829;51.350;17.286;2023-05-07T00:40:21;21.70;45.20
38020;DHT22;23829;51.350;17.286;2023-05-07T00:42:48;21.40;45.40
38020;DHT22;23829;51.350;17.286;2023-05-07T00:45:15;21.50;45.70
38020;DHT22;23829;51.350;17.286;2023-05-07T00:47:43;22.40;44.30
38020;DHT22;23829;51.350;17.286;2023-05-07T00:50:09;22.50;43.80
38020;DHT22;23829;51.350;17.286;2023-05-07T00:52:37;22.20;44.10
38020;DHT22;23829;51.350;17.286;2023-05-07T00:55:05;22.60;44.20
38020;DHT22;23829;51.350;17.286;2023-05-07T00:57:36;22.00;43.90
38020;DHT22;23829;51.350;17.286;2023-05-07T01:00:04;22.20;43.90
38020;DHT22;23829;51.350;17.286;2023-05-07T01:02:31;22.40;43.20
38020;DHT22;23829;51.350;17.286;2023-05-07T01:04:57;21.90;44.50
38020;DHT22;23829;51.350;17.286;2023-05-07T01:07:24;22.20;43.50
38020;DHT22;23829;51.350;17.286;2023-05-07T01:09:51;22.10;43.50
38020;DHT22;23829;51.350;17.286;2023-05-07T01:12:19;22.50;43.70
38020;DHT22;23829;51.350;17.286;2023-05-07T01:14:45;21.90;44.10
38020;DHT22;23829;51.350;17.286;2023-05-07T01:17:12;21.70;44.30
38020;DHT22;23829;51.350;17.286;2023-05-07T01:19:38;21.40;45.40
38020;DHT22;23829;51.350;17.286;2023-05-07T01:22:08;21.50;45.00
38020;DHT22;23829;51.350;17.286;2023-05-07T01:24:44;21.40;44.90
38020;DHT22;23829;51.350;17.286;2023-05-07T01:27:13;21.80;44.90
38020;DHT22;23829;51.350;17.286;2023-05-07T01:29:39;22.10;43.50
38020;DHT22;23829;51.350;17.286;2023-05-07T01:32:06;21.70;44.40
38020;DHT22;23829;51.350;17.286;2023-05-07T01:34:34;21.80;44.90
38020;DHT22;23829;51.350;17.286;2023-05-07T01:37:02;21.80;44.30
38020;DHT22;23829;51.350;17.286;2023-05-07T01:39:29;22.10;44.00
38020;DHT22;23829;51.350;17.286;2023-05-07T01:41:56;21.70;44.70
38020;DHT22;23829;51.350;17.286;2023-05-07T01:44:25;21.60;44.50
38020;DHT22;23829;51.350;17.286;2023-05-07T01:46:52;21.20;45.90
38020;DHT22;23829;51.350;17.286;2023-05-07T01:49:19;21.30;45.30
38020;DHT22;23829;51.350;17.286;2023-05-07T01:51:46;22.30;44.50
38020;DHT22;23829;51.350;17.286;2023-05-07T01:54:12;21.90;44.40
38020;DHT22;23829;51.350;17.286;2023-05-07T01:56:39;22.10;43.80
38020;DHT22;23829;51.350;17.286;2023-05-07T01:59:06;21.50;44.80
38020;DHT22;23829;51.350;17.286;2023-05-07T02:01:33;21.00;45.60
38020;DHT22;23829;51.350;17.286;2023-05-07T02:03:59;21.10;45.90
38020;DHT22;23829;51.350;17.286;2023-05-07T02:06:28;20.90;46.30
38020;DHT22;23829;51.350;17.286;2023-05-07T02:09:00;21.40;45.60
38020;DHT22;23829;51.350;17.286;2023-05-07T02:11:27;21.90;44.30
38020;DHT22;23829;51.350;17.286;2023-05-07T02:13:53;22.40;43.20
38020;DHT22;23829;51.350;17.286;2023-05-07T02:16:20;22.20;43.10
38020;DHT22;23829;51.350;17.286;2023-05-07T02:18:47;21.50;45.00
38020;DHT22;23829;51.350;17.286;2023-05-07T02:21:14;21.80;44.80
38020;DHT22;23829;51.350;17.286;2023-05-07T02:23:40;22.80;42.70
38020;DHT22;23829;51.350;17.286;2023-05-07T02:26:08;22.90;41.40
38020;DHT22;23829;51.350;17.286;2023-05-07T02:28:34;22.20;42.70
38020;DHT22;23829;51.350;17.286;2023-05-07T02:31:05;21.80;43.80
38020;DHT22;23829;51.350;17.286;2023-05-07T02:33:32;21.80;44.00
38020;DHT22;23829;51.350;17.286;2023-05-07T02:36:09;22.20;43.50
38020;DHT22;23829;51.350;17.286;2023-05-07T02:38:41;22.30;42.90
38020;DHT22;23829;51.350;17.286;2023-05-07T02:41:07;22.10;43.30
38020;DHT22;23829;51.350;17.286;2023-05-07T02:43:34;22.10;43.40
38020;DHT22;23829;51.350;17.286;2023-05-07T02:46:05;22.60;42.50
38020;DHT22;23829;51.350;17.286;2023-05-07T02:48:34;21.90;43.30
38020;DHT22;23829;51.350;17.286;2023-05-07T02:51:03;22.00;43.00
38020;DHT22;23829;51.350;17.286;2023-05-07T02:53:30;22.40;42.50
38020;DHT22;23829;51.350;17.286;2023-05-07T02:55:59;22.10;42.80
38020;DHT22;23829;51.350;17.286;2023-05-07T02:58:26;22.10;42.90
38020;DHT22;23829;51.350;17.286;2023-05-07T03:00:53;22.50;42.20
38020;DHT22;23829;51.350;17.286;2023-05-07T03:03:38;22.70;42.00
38020;DHT22;23829;51.350;17.286;2023-05-07T03:06:06;22.50;42.30
38020;DHT22;23829;51.350;17.286;2023-05-07T03:08:32;22.50;43.20
38020;DHT22;23829;51.350;17.286;2023-05-07T03:10:59;22.30;42.60
38020;DHT22;23829;51.350;17.286;2023-05-07T03:13:26;21.80;43.40
38020;DHT22;23829;51.350;17.286;2023-05-07T03:15:53;22.00;42.70
38020;DHT22;23829;51.350;17.286;2023-05-07T03:18:19;22.30;42.50
38020;DHT22;23829;51.350;17.286;2023-05-07T03:20:47;21.90;43.40
38020;DHT22;23829;51.350;17.286;2023-05-07T03:23:15;21.70;43.60
38020;DHT22;23829;51.350;17.286;2023-05-07T03:25:42;21.30;44.50
38020;DHT22;23829;51.350;17.286;2023-05-07T03:28:08;21.10;45.00
38020;DHT22;23829;51.350;17.286;2023-05-07T03:30:44;21.40;44.20
38020;DHT22;23829;51.350;17.286;2023-05-07T03:33:10;21.50;43.70
38020;DHT22;23829;51.350;17.286;2023-05-07T03:35:37;21.70;44.00
38020;DHT22;23829;51.350;17.286;2023-05-07T03:38:04;21.50;44.10
38020;DHT22;23829;51.350;17.286;2023-05-07T03:40:34;21.40;44.60
38020;DHT22;23829;51.350;17.286;2023-05-07T03:43:02;21.30;44.30
38020;DHT22;23829;51.350;17.286;2023-05-07T03:45:31;21.60;44.20
38020;DHT22;23829;51.350;17.286;2023-05-07T03:48:17;22.10;43.60
38020;DHT22;23829;51.350;17.286;2023-05-07T03:50:45;21.80;42.60
38020;DHT22;23829;51.350;17.286;2023-05-07T03:53:11;21.90;43.10
38020;DHT22;23829;51.350;17.286;2023-05-07T03:55:39;22.20;42.60
38020;DHT22;23829;51.350;17.286;2023-05-07T03:58:06;22.30;41.90
38020;DHT22;23829;51.350;17.286;2023-05-07T04:00:33;22.20;42.20
38020;DHT22;23829;51.350;17.286;2023-05-07T04:03:12;21.40;43.90
38020;DHT22;23829;51.350;17.286;2023-05-07T04:05:39;21.60;43.50
38020;DHT22;23829;51.350;17.286;2023-05-07T04:08:05;21.20;44.30
38020;DHT22;23829;51.350;17.286;2023-05-07T04:10:38;21.30;44.60
38020;DHT22;23829;51.350;17.286;2023-05-07T04:13:08;21.20;44.40
38020;DHT22;23829;51.350;17.286;2023-05-07T04:15:36;21.90;43.90
38020;DHT22;23829;51.350;17.286;2023-05-07T04:18:05;22.40;42.20
38020;DHT22;23829;51.350;17.286;2023-05-07T04:20:34;22.90;41.00
38020;DHT22;23829;51.350;17.286;2023-05-07T04:23:03;22.40;41.50
38020;DHT22;23829;51.350;17.286;2023-05-07T04:25:31;21.80;42.80
38020;DHT22;23829;51.350;17.286;2023-05-07T04:28:05;21.30;44.00
38020;DHT22;23829;51.350;17.286;2023-05-07T04:30:32;21.60;44.00
38020;DHT22;23829;51.350;17.286;2023-05-07T04:32:59;21.50;43.80
38020;DHT22;23829;51.350;17.286;2023-05-07T04:35:28;22.30;42.30
38020;DHT22;23829;51.350;17.286;2023-05-07T04:37:55;22.20;42.30
38020;DHT22;23829;51.350;17.286;2023-05-07T04:40:21;21.30;43.60
38020;DHT22;23829;51.350;17.286;2023-05-07T04:42:48;22.00;43.20
38020;DHT22;23829;51.350;17.286;2023-05-07T04:45:15;21.20;43.80
38020;DHT22;23829;51.350;17.286;2023-05-07T04:47:44;20.80;44.80
38020;DHT22;23829;51.350;17.286;2023-05-07T04:50:11;21.50;43.40
38020;DHT22;23829;51.350;17.286;2023-05-07T04:52:39;21.20;44.00
38020;DHT22;23829;51.350;17.286;2023-05-07T04:55:06;21.40;44.30
38020;DHT22;23829;51.350;17.286;2023-05-07T04:57:37;21.70;43.80
38020;DHT22;23829;51.350;17.286;2023-05-07T05:00:06;21.70;43.80
38020;DHT22;23829;51.350;17.286;2023-05-07T05:02:36;22.80;41.20
38020;DHT22;23829;51.350;17.286;2023-05-07T05:05:03;22.90;40.70
38020;DHT22;23829;51.350;17.286;2023-05-07T05:07:30;22.80;40.80
38020;DHT22;23829;51.350;17.286;2023-05-07T05:09:57;22.80;40.70
38020;DHT22;23829;51.350;17.286;2023-05-07T05:12:25;22.70;41.00
38020;DHT22;23829;51.350;17.286;2023-05-07T05:14:51;22.60;41.00
38020;DHT22;23829;51.350;17.286;2023-05-07T05:17:18;22.10;42.10
38020;DHT22;23829;51.350;17.286;2023-05-07T05:19:45;21.80;42.80
38020;DHT22;23829;51.350;17.286;2023-05-07T05:22:11;22.20;42.30
38020;DHT22;23829;51.350;17.286;2023-05-07T05:24:37;22.40;41.80
38020;DHT22;23829;51.350;17.286;2023-05-07T05:27:05;22.30;41.40
38020;DHT22;23829;51.350;17.286;2023-05-07T05:29:32;22.30;41.80
38020;DHT22;23829;51.350;17.286;2023-05-07T05:31:58;21.90;43.00
38020;DHT22;23829;51.350;17.286;2023-05-07T05:34:26;22.60;41.60
38020;DHT22;23829;51.350;17.286;2023-05-07T05:36:54;22.30;41.60
38020;DHT22;23829;51.350;17.286;2023-05-07T05:39:20;22.80;41.20
38020;DHT22;23829;51.350;17.286;2023-05-07T05:41:49;22.40;41.40
38020;DHT22;23829;51.350;17.286;2023-05-07T05:44:16;22.10;42.10
38020;DHT22;23829;51.350;17.286;2023-05-07T05:46:43;22.90;40.90
38020;DHT22;23829;51.350;17.286;2023-05-07T05:49:10;23.30;39.90
38020;DHT22;23829;51.350;17.286;2023-05-07T05:51:37;22.40;40.90
38020;DHT22;23829;51.350;17.286;2023-05-07T05:54:04;21.60;42.70
38020;DHT22;23829;51.350;17.286;2023-05-07T05:56:32;22.10;41.70
38020;DHT22;23829;51.350;17.286;2023-05-07T05:58:58;22.20;41.30
38020;DHT22;23829;51.350;17.286;2023-05-07T06:01:25;22.10;41.90
38020;DHT22;23829;51.350;17.286;2023-05-07T06:03:53;22.10;42.20
38020;DHT22;23829;51.350;17.286;2023-05-07T06:06:19;22.20;42.10
38020;DHT22;23829;51.350;17.286;2023-05-07T06:08:46;22.30;41.90
38020;DHT22;23829;51.350;17.286;2023-05-07T06:11:17;22.80;40.30
38020;DHT22;23829;51.350;17.286;2023-05-07T06:13:46;22.20;41.40
38020;DHT22;23829;51.350;17.286;2023-05-07T06:16:12;22.60;41.30
38020;DHT22;23829;51.350;17.286;2023-05-07T06:18:39;22.50;41.30
38020;DHT22;23829;51.350;17.286;2023-05-07T06:21:06;22.70;41.10
38020;DHT22;23829;51.350;17.286;2023-05-07T06:23:35;22.90;40.20
38020;DHT22;23829;51.350;17.286;2023-05-07T06:26:02;22.70;40.80
38020;DHT22;23829;51.350;17.286;2023-05-07T06:28:34;22.00;41.60
38020;DHT22;23829;51.350;17.286;2023-05-07T06:31:14;22.10;41.30
38020;DHT22;23829;51.350;17.286;2023-05-07T06:33:44;22.00;42.10
38020;DHT22;23829;51.350;17.286;2023-05-07T06:36:11;22.00;42.10
38020;DHT22;23829;51.350;17.286;2023-05-07T06:38:39;22.00;41.80
38020;DHT22;23829;51.350;17.286;2023-05-07T06:41:06;21.90;42.50
38020;DHT22;23829;51.350;17.286;2023-05-07T06:43:33;22.00;42.00
38020;DHT22;23829;51.350;17.286;2023-05-07T06:46:25;22.20;42.10
38020;DHT22;23829;51.350;17.286;2023-05-07T06:48:52;22.20;41.30
38020;DHT22;23829;51.350;17.286;2023-05-07T06:51:19;22.50;40.80
38020;DHT22;23829;51.350;17.286;2023-05-07T06:53:46;22.10;41.40
38020;DHT22;23829;51.350;17.286;2023-05-07T06:56:12;21.90;42.30
38020;DHT22;23829;51.350;17.286;2023-05-07T06:58:39;22.40;41.50
38020;DHT22;23829;51.350;17.286;2023-05-07T07:01:07;22.20;41.70
38020;DHT22;23829;51.350;17.286;2023-05-07T07:03:35;22.20;41.90
38020;DHT22;23829;51.350;17.286;2023-05-07T07:06:01;22.30;41.30
38020;DHT22;23829;51.350;17.286;2023-05-07T07:08:29;22.20;41.70
38020;DHT22;23829;51.350;17.286;2023-05-07T07:10:56;22.40;41.20
38020;DHT22;23829;51.350;17.286;2023-05-07T07:13:23;22.00;41.90
38020;DHT22;23829;51.350;17.286;2023-05-07T07:15:49;22.50;41.20
38020;DHT22;23829;51.350;17.286;2023-05-07T07:18:17;23.30;39.90
38020;DHT22;23829;51.350;17.286;2023-05-07T07:20:46;23.10;39.60
38020;DHT22;23829;51.350;17.286;2023-05-07T07:23:14;23.10;39.70
38020;DHT22;23829;51.350;17.286;2023-05-07T07:25:41;22.80;40.70
38020;DHT22;23829;51.350;17.286;2023-05-07T07:28:08;23.00;39.60
38020;DHT22;23829;51.350;17.286;2023-05-07T07:30:37;22.80;40.30
38020;DHT22;23829;51.350;17.286;2023-05-07T07:33:04;22.80;40.30
38020;DHT22;23829;51.350;17.286;2023-05-07T07:35:35;23.40;39.80
38020;DHT22;23829;51.350;17.286;2023-05-07T07:38:04;23.30;39.30
38020;DHT22;23829;51.350;17.286;2023-05-07T07:40:30;23.00;40.00
38020;DHT22;23829;51.350;17.286;2023-05-07T07:42:57;22.70;40.80
38020;DHT22;23829;51.350;17.286;2023-05-07T07:45:24;22.80;40.70
38020;DHT22;23829;51.350;17.286;2023-05-07T07:47:52;23.30;39.60
38020;DHT22;23829;51.350;17.286;2023-05-07T07:50:18;23.90;38.10
38020;DHT22;23829;51.350;17.286;2023-05-07T07:52:45;23.40;38.60
38020;DHT22;23829;51.350;17.286;2023-05-07T07:55:14;22.90;38.90
38020;DHT22;23829;51.350;17.286;2023-05-07T07:57:47;23.20;38.90
38020;DHT22;23829;51.350;17.286;2023-05-07T08:00:14;22.20;40.70
38020;DHT22;23829;51.350;17.286;2023-05-07T08:02:44;22.60;40.30
38020;DHT22;23829;51.350;17.286;2023-05-07T08:05:18;22.40;40.40
38020;DHT22;23829;51.350;17.286;2023-05-07T08:07:47;22.60;40.00
38020;DHT22;23829;51.350;17.286;2023-05-07T08:10:21;22.20;40.80
38020;DHT22;23829;51.350;17.286;2023-05-07T08:12:50;22.60;40.90
38020;DHT22;23829;51.350;17.286;2023-05-07T08:15:17;22.90;39.30
38020;DHT22;23829;51.350;17.286;2023-05-07T08:17:44;22.20;40.40
38020;DHT22;23829;51.350;17.286;2023-05-07T08:20:11;22.40;40.20
38020;DHT22;23829;51.350;17.286;2023-05-07T08:22:38;22.00;41.10
38020;DHT22;23829;51.350;17.286;2023-05-07T08:25:07;22.30;40.50
38020;DHT22;23829;51.350;17.286;2023-05-07T08:27:34;21.80;41.00
38020;DHT22;23829;51.350;17.286;2023-05-07T08:30:00;22.70;39.50
38020;DHT22;23829;51.350;17.286;2023-05-07T08:32:27;22.90;39.00
38020;DHT22;23829;51.350;17.286;2023-05-07T08:34:53;22.60;39.90
38020;DHT22;23829;51.350;17.286;2023-05-07T08:37:20;22.50;39.40
38020;DHT22;23829;51.350;17.286;2023-05-07T08:39:46;22.30;40.90
38020;DHT22;23829;51.350;17.286;2023-05-07T08:42:22;22.50;40.20
38020;DHT22;23829;51.350;17.286;2023-05-07T08:44:51;22.80;39.80
38020;DHT22;23829;51.350;17.286;2023-05-07T08:47:23;23.60;37.60
38020;DHT22;23829;51.350;17.286;2023-05-07T08:49:54;23.00;38.30
38020;DHT22;23829;51.350;17.286;2023-05-07T08:52:22;22.80;39.20
38020;DHT22;23829;51.350;17.286;2023-05-07T08:54:49;23.20;38.70
38020;DHT22;23829;51.350;17.286;2023-05-07T08:57:16;23.00;38.80
38020;DHT22;23829;51.350;17.286;2023-05-07T08:59:43;22.20;40.50
38020;DHT22;23829;51.350;17.286;2023-05-07T09:02:11;21.80;42.50
38020;DHT22;23829;51.350;17.286;2023-05-07T09:04:38;22.10;42.20
38020;DHT22;23829;51.350;17.286;2023-05-07T09:07:05;22.20;42.10
38020;DHT22;23829;51.350;17.286;2023-05-07T09:09:35;23.60;38.50
38020;DHT22;23829;51.350;17.286;2023-05-07T09:12:04;23.70;37.90
38020;DHT22;23829;51.350;17.286;2023-05-07T09:14:33;23.80;38.10
38020;DHT22;23829;51.350;17.286;2023-05-07T09:17:00;23.40;38.50
38020;DHT22;23829;51.350;17.286;2023-05-07T09:19:27;23.60;38.10
38020;DHT22;23829;51.350;17.286;2023-05-07T09:22:00;22.90;38.30
38020;DHT22;23829;51.350;17.286;2023-05-07T09:24:30;23.00;38.30
38020;DHT22;23829;51.350;17.286;2023-05-07T09:27:02;22.50;39.40
38020;DHT22;23829;51.350;17.286;2023-05-07T09:29:30;22.10;39.80
38020;DHT22;23829;51.350;17.286;2023-05-07T09:32:05;22.60;39.40
38020;DHT22;23829;51.350;17.286;2023-05-07T09:34:32;22.80;39.80
38020;DHT22;23829;51.350;17.286;2023-05-07T09:37:04;23.60;38.60
38020;DHT22;23829;51.350;17.286;2023-05-07T09:39:42;24.30;36.80
38020;DHT22;23829;51.350;17.286;2023-05-07T09:42:11;23.40;38.10
38020;DHT22;23829;51.350;17.286;2023-05-07T09:44:38;23.40;38.60
38020;DHT22;23829;51.350;17.286;2023-05-07T09:47:10;24.00;37.60
38020;DHT22;23829;51.350;17.286;2023-05-07T09:49:47;24.60;36.90
38020;DHT22;23829;51.350;17.286;2023-05-07T09:52:18;24.80;35.70
38020;DHT22;23829;51.350;17.286;2023-05-07T09:54:50;24.70;35.80
38020;DHT22;23829;51.350;17.286;2023-05-07T09:57:20;24.70;35.70
38020;DHT22;23829;51.350;17.286;2023-05-07T09:59:52;24.50;36.50
38020;DHT22;23829;51.350;17.286;2023-05-07T10:02:20;24.40;36.20
38020;DHT22;23829;51.350;17.286;2023-05-07T10:04:51;24.10;36.50
38020;DHT22;23829;51.350;17.286;2023-05-07T10:07:24;24.00;36.70
38020;DHT22;23829;51.350;17.286;2023-05-07T10:09:57;24.40;36.40
38020;DHT22;23829;51.350;17.286;2023-05-07T10:12:32;24.00;36.80
38020;DHT22;23829;51.350;17.286;2023-05-07T10:15:08;23.90;37.20
38020;DHT22;23829;51.350;17.286;2023-05-07T10:17:37;23.40;37.80
38020;DHT22;23829;51.350;17.286;2023-05-07T10:20:05;23.60;37.30
38020;DHT22;23829;51.350;17.286;2023-05-07T10:22:47;23.20;38.20
38020;DHT22;23829;51.350;17.286;2023-05-07T10:25:21;22.50;40.10
38020;DHT22;23829;51.350;17.286;2023-05-07T10:27:51;22.70;39.20
38020;DHT22;23829;51.350;17.286;2023-05-07T10:33:45;23.60;37.60
38020;DHT22;23829;51.350;17.286;2023-05-07T10:36:14;23.80;37.30
38020;DHT22;23829;51.350;17.286;2023-05-07T10:38:42;23.40;37.70
38020;DHT22;23829;51.350;17.286;2023-05-07T10:41:10;23.80;37.30
38020;DHT22;23829;51.350;17.286;2023-05-07T10:43:44;24.10;37.00
38020;DHT22;23829;51.350;17.286;2023-05-07T10:46:20;24.00;36.90
38020;DHT22;23829;51.350;17.286;2023-05-07T10:49:07;24.80;35.80
38020;DHT22;23829;51.350;17.286;2023-05-07T10:51:40;24.10;36.80
38020;DHT22;23829;51.350;17.286;2023-05-07T10:54:19;23.50;37.70
38020;DHT22;23829;51.350;17.286;2023-05-07T10:56:54;23.60;37.00
38020;DHT22;23829;51.350;17.286;2023-05-07T10:59:31;23.60;37.10
38020;DHT22;23829;51.350;17.286;2023-05-07T11:02:03;23.70;37.80
38020;DHT22;23829;51.350;17.286;2023-05-07T11:04:41;24.30;36.60
38020;DHT22;23829;51.350;17.286;2023-05-07T11:07:24;24.70;35.80
38020;DHT22;23829;51.350;17.286;2023-05-07T11:09:58;24.30;36.50
38020;DHT22;23829;51.350;17.286;2023-05-07T11:12:51;24.20;36.80
38020;DHT22;23829;51.350;17.286;2023-05-07T11:15:54;24.30;35.80
38020;DHT22;23829;51.350;17.286;2023-05-07T11:18:53;24.50;36.20
38020;DHT22;23829;51.350;17.286;2023-05-07T11:21:41;24.50;35.30
38020;DHT22;23829;51.350;17.286;2023-05-07T11:24:26;23.80;36.60
38020;DHT22;23829;51.350;17.286;2023-05-07T11:26:57;23.80;36.50
38020;DHT22;23829;51.350;17.286;2023-05-07T11:29:26;24.00;36.10
38020;DHT22;23829;51.350;17.286;2023-05-07T11:31:59;24.00;36.40
38020;DHT22;23829;51.350;17.286;2023-05-07T11:34:31;24.30;35.10
38020;DHT22;23829;51.350;17.286;2023-05-07T11:36:59;24.60;34.90
38020;DHT22;23829;51.350;17.286;2023-05-07T11:39:49;23.60;36.90
38020;DHT22;23829;51.350;17.286;2023-05-07T11:42:34;23.80;37.20
38020;DHT22;23829;51.350;17.286;2023-05-07T11:45:01;23.90;37.40
38020;DHT22;23829;51.350;17.286;2023-05-07T11:47:30;24.60;36.60
38020;DHT22;23829;51.350;17.286;2023-05-07T11:49:57;25.30;34.80
38020;DHT22;23829;51.350;17.286;2023-05-07T11:52:28;25.30;34.50
38020;DHT22;23829;51.350;17.286;2023-05-07T11:54:59;25.60;34.00
38020;DHT22;23829;51.350;17.286;2023-05-07T11:57:30;25.00;35.50
38020;DHT22;23829;51.350;17.286;2023-05-07T12:00:00;25.20;34.90
38020;DHT22;23829;51.350;17.286;2023-05-07T12:02:28;25.30;34.70
38020;DHT22;23829;51.350;17.286;2023-05-07T12:04:54;25.40;33.90
38020;DHT22;23829;51.350;17.286;2023-05-07T12:07:21;24.40;35.50
38020;DHT22;23829;51.350;17.286;2023-05-07T12:09:50;24.50;36.40
38020;DHT22;23829;51.350;17.286;2023-05-07T12:12:16;24.30;36.40
38020;DHT22;23829;51.350;17.286;2023-05-07T12:14:45;24.80;35.20
38020;DHT22;23829;51.350;17.286;2023-05-07T12:17:13;24.50;35.40
38020;DHT22;23829;51.350;17.286;2023-05-07T12:19:41;24.30;36.20
38020;DHT22;23829;51.350;17.286;2023-05-07T12:22:08;24.90;35.10
38020;DHT22;23829;51.350;17.286;2023-05-07T12:24:48;24.50;35.20
38020;DHT22;23829;51.350;17.286;2023-05-07T12:27:15;23.80;36.70
38020;DHT22;23829;51.350;17.286;2023-05-07T12:29:46;24.20;35.90
38020;DHT22;23829;51.350;17.286;2023-05-07T12:32:15;24.10;35.90
38020;DHT22;23829;51.350;17.286;2023-05-07T12:34:42;24.10;36.40
38020;DHT22;23829;51.350;17.286;2023-05-07T12:37:09;24.40;35.80
38020;DHT22;23829;51.350;17.286;2023-05-07T12:39:35;24.20;36.40
38020;DHT22;23829;51.350;17.286;2023-05-07T12:42:02;24.30;36.60
38020;DHT22;23829;51.350;17.286;2023-05-07T12:44:32;24.70;35.30
38020;DHT22;23829;51.350;17.286;2023-05-07T12:47:03;24.50;36.00
38020;DHT22;23829;51.350;17.286;2023-05-07T12:49:29;24.70;35.40
38020;DHT22;23829;51.350;17.286;2023-05-07T12:51:56;24.60;34.50
38020;DHT22;23829;51.350;17.286;2023-05-07T12:54:35;23.90;36.00
38020;DHT22;23829;51.350;17.286;2023-05-07T12:57:05;24.30;36.30
38020;DHT22;23829;51.350;17.286;2023-05-07T12:59:39;24.60;35.40
38020;DHT22;23829;51.350;17.286;2023-05-07T13:02:07;24.90;34.60
38020;DHT22;23829;51.350;17.286;2023-05-07T13:04:35;24.80;34.50
38020;DHT22;23829;51.350;17.286;2023-05-07T13:07:02;25.30;34.60
38020;DHT22;23829;51.350;17.286;2023-05-07T13:09:29;25.50;34.40
38020;DHT22;23829;51.350;17.286;2023-05-07T13:11:55;24.40;35.40
38020;DHT22;23829;51.350;17.286;2023-05-07T13:14:21;25.10;34.30
38020;DHT22;23829;51.350;17.286;2023-05-07T13:16:48;24.70;34.80
38020;DHT22;23829;51.350;17.286;2023-05-07T13:19:15;24.10;35.40
38020;DHT22;23829;51.350;17.286;2023-05-07T13:21:41;24.00;36.10
38020;DHT22;23829;51.350;17.286;2023-05-07T13:24:08;24.60;35.30
38020;DHT22;23829;51.350;17.286;2023-05-07T13:26:34;24.10;35.80
38020;DHT22;23829;51.350;17.286;2023-05-07T13:29:01;23.70;36.40
38020;DHT22;23829;51.350;17.286;2023-05-07T13:31:27;24.00;36.50
38020;DHT22;23829;51.350;17.286;2023-05-07T13:33:53;24.30;35.10
38020;DHT22;23829;51.350;17.286;2023-05-07T13:36:22;23.90;35.60
38020;DHT22;23829;51.350;17.286;2023-05-07T13:38:49;23.40;36.50
38020;DHT22;23829;51.350;17.286;2023-05-07T13:41:16;24.00;35.70
38020;DHT22;23829;51.350;17.286;2023-05-07T13:43:42;24.50;34.80
38020;DHT22;23829;51.350;17.286;2023-05-07T13:46:09;24.20;35.70
38020;DHT22;23829;51.350;17.286;2023-05-07T13:48:35;24.30;35.40
38020;DHT22;23829;51.350;17.286;2023-05-07T13:51:02;24.70;34.30
38020;DHT22;23829;51.350;17.286;2023-05-07T13:53:28;24.60;34.60
38020;DHT22;23829;51.350;17.286;2023-05-07T13:55:55;24.70;34.60
38020;DHT22;23829;51.350;17.286;2023-05-07T13:58:21;24.90;34.10
38020;DHT22;23829;51.350;17.286;2023-05-07T14:00:48;25.10;33.80
38020;DHT22;23829;51.350;17.286;2023-05-07T14:03:14;24.80;34.40
38020;DHT22;23829;51.350;17.286;2023-05-07T14:05:41;24.30;35.10
38020;DHT22;23829;51.350;17.286;2023-05-07T14:08:07;24.10;35.70
38020;DHT22;23829;51.350;17.286;2023-05-07T14:10:34;24.10;35.90
38020;DHT22;23829;51.350;17.286;2023-05-07T14:13:01;24.10;36.10
38020;DHT22;23829;51.350;17.286;2023-05-07T14:15:27;23.80;36.50
38020;DHT22;23829;51.350;17.286;2023-05-07T14:17:53;24.00;36.40
38020;DHT22;23829;51.350;17.286;2023-05-07T14:20:20;25.00;34.70
38020;DHT22;23829;51.350;17.286;2023-05-07T14:22:46;25.30;34.60
38020;DHT22;23829;51.350;17.286;2023-05-07T14:25:13;25.50;34.60
38020;DHT22;23829;51.350;17.286;2023-05-07T14:27:40;25.50;34.60
38020;DHT22;23829;51.350;17.286;2023-05-07T14:30:07;25.60;33.10
38020;DHT22;23829;51.350;17.286;2023-05-07T14:32:34;25.00;33.50
38020;DHT22;23829;51.350;17.286;2023-05-07T14:35:00;24.90;33.90
38020;DHT22;23829;51.350;17.286;2023-05-07T14:37:27;24.60;34.20
38020;DHT22;23829;51.350;17.286;2023-05-07T14:39:54;24.20;34.40
38020;DHT22;23829;51.350;17.286;2023-05-07T14:42:20;24.20;34.80
38020;DHT22;23829;51.350;17.286;2023-05-07T14:44:47;24.40;34.90
38020;DHT22;23829;51.350;17.286;2023-05-07T14:47:14;25.00;33.30
38020;DHT22;23829;51.350;17.286;2023-05-07T14:49:42;24.70;33.80
38020;DHT22;23829;51.350;17.286;2023-05-07T14:52:08;25.20;33.50
38020;DHT22;23829;51.350;17.286;2023-05-07T14:54:37;24.90;33.70
38020;DHT22;23829;51.350;17.286;2023-05-07T14:57:05;25.00;33.50
38020;DHT22;23829;51.350;17.286;2023-05-07T14:59:32;24.50;34.90
38020;DHT22;23829;51.350;17.286;2023-05-07T15:01:58;24.50;34.60
38020;DHT22;23829;51.350;17.286;2023-05-07T15:04:25;24.60;34.10
38020;DHT22;23829;51.350;17.286;2023-05-07T15:06:51;24.60;34.20
38020;DHT22;23829;51.350;17.286;2023-05-07T15:09:20;25.60;32.90
38020;DHT22;23829;51.350;17.286;2023-05-07T15:11:46;25.10;33.80
38020;DHT22;23829;51.350;17.286;2023-05-07T15:14:12;25.50;32.70
38020;DHT22;23829;51.350;17.286;2023-05-07T15:16:39;24.60;33.80
38020;DHT22;23829;51.350;17.286;2023-05-07T15:19:05;24.60;33.60
38020;DHT22;23829;51.350;17.286;2023-05-07T15:21:31;24.40;34.40
38020;DHT22;23829;51.350;17.286;2023-05-07T15:24:01;24.70;34.50
38020;DHT22;23829;51.350;17.286;2023-05-07T15:26:27;24.60;34.20
38020;DHT22;23829;51.350;17.286;2023-05-07T15:28:54;24.90;33.60